sensor_id;sensor_type;location;lat;lon;timestamp;P1;durP1;ratioP1;P2;durP2;ratioP2
68178;SDS011;54998;42.656;23.382;2022-09-09T00:02:19;13.40;;;9.05;;
68178;SDS011;54998;42.656;23.382;2022-09-09T00:05:14;10.30;;;8.30;;
68178;SDS011;54998;42.656;23.382;2022-09-09T00:07:53;12.02;;;9.10;;
68178;SDS011;54998;42.656;23.382;2022-09-09T00:18:21;14.50;;;9.25;;
68178;SDS011;54998;42.656;23.382;2022-09-09T00:23:42;14.82;;;10.07;;
68178;SDS011;54998;42.656;23.382;2022-09-09T00:29:23;13.50;;;8.90;;
68178;SDS011;54998;42.656;23.382;2022-09-09T00:32:13;11.52;;;7.47;;
68178;SDS011;54998;42.656;23.382;2022-09-09T00:34:55;9.05;;;7.30;;
68178;SDS011;54998;42.656;23.382;2022-09-09T00:37:25;11.43;;;7.50;;
68178;SDS011;54998;42.656;23.382;2022-09-09T00:39:52;11.05;;;7.70;;
68178;SDS011;54998;42.656;23.382;2022-09-09T00:48:10;11.02;;;8.02;;
68178;SDS011;54998;42.656;23.382;2022-09-09T00:58:34;12.88;;;8.48;;
68178;SDS011;54998;42.656;23.382;2022-09-09T01:01:03;15.27;;;8.93;;
68178;SDS011;54998;42.656;23.382;2022-09-09T01:03:34;11.45;;;8.57;;
68178;SDS011;54998;42.656;23.382;2022-09-09T01:11:43;12.50;;;8.52;;
68178;SDS011;54998;42.656;23.382;2022-09-09T01:17:10;10.13;;;8.30;;
68178;SDS011;54998;42.656;23.382;2022-09-09T01:23:15;9.68;;;7.95;;
68178;SDS011;54998;42.656;23.382;2022-09-09T01:28:43;11.40;;;7.78;;
68178;SDS011;54998;42.656;23.382;2022-09-09T01:31:11;13.80;;;8.40;;
68178;SDS011;54998;42.656;23.382;2022-09-09T01:33:42;10.85;;;8.35;;
68178;SDS011;54998;42.656;23.382;2022-09-09T01:36:08;10.32;;;8.07;;
68178;SDS011;54998;42.656;23.382;2022-09-09T01:38:36;12.30;;;8.57;;
68178;SDS011;54998;42.656;23.382;2022-09-09T01:41:02;10.82;;;7.95;;
68178;SDS011;54998;42.656;23.382;2022-09-09T01:43:28;10.45;;;8.50;;
68178;SDS011;54998;42.656;23.382;2022-09-09T01:45:54;13.35;;;8.82;;
68178;SDS011;54998;42.656;23.382;2022-09-09T01:48:23;10.82;;;8.52;;
68178;SDS011;54998;42.656;23.382;2022-09-09T01:50:50;11.32;;;8.45;;
68178;SDS011;54998;42.656;23.382;2022-09-09T01:53:17;10.73;;;8.65;;
68178;SDS011;54998;42.656;23.382;2022-09-09T01:56:27;12.02;;;8.45;;
68178;SDS011;54998;42.656;23.382;2022-09-09T01:58:35;13.75;;;8.50;;
68178;SDS011;54998;42.656;23.382;2022-09-09T02:07:03;13.05;;;9.77;;
68178;SDS011;54998;42.656;23.382;2022-09-09T02:09:39;11.27;;;8.68;;
68178;SDS011;54998;42.656;23.382;2022-09-09T02:12:09;12.23;;;7.82;;
68178;SDS011;54998;42.656;23.382;2022-09-09T02:14:40;10.45;;;8.20;;
68178;SDS011;54998;42.656;23.382;2022-09-09T02:17:11;11.85;;;8.00;;
68178;SDS011;54998;42.656;23.382;2022-09-09T02:19:42;12.45;;;8.50;;
68178;SDS011;54998;42.656;23.382;2022-09-09T02:22:15;10.90;;;8.63;;
68178;SDS011;54998;42.656;23.382;2022-09-09T02:24:43;11.60;;;8.68;;
68178;SDS011;54998;42.656;23.382;2022-09-09T02:27:11;9.73;;;7.55;;
68178;SDS011;54998;42.656;23.382;2022-09-09T02:29:39;12.10;;;8.65;;
68178;SDS011;54998;42.656;23.382;2022-09-09T02:32:07;12.25;;;8.05;;
68178;SDS011;54998;42.656;23.382;2022-09-09T02:34:39;10.60;;;7.80;;
68178;SDS011;54998;42.656;23.382;2022-09-09T02:37:09;14.77;;;8.57;;
68178;SDS011;54998;42.656;23.382;2022-09-09T02:39:37;14.55;;;9.15;;
68178;SDS011;54998;42.656;23.382;2022-09-09T02:42:03;9.82;;;8.30;;
68178;SDS011;54998;42.656;23.382;2022-09-09T02:44:30;10.95;;;8.60;;
68178;SDS011;54998;42.656;23.382;2022-09-09T02:49:44;13.57;;;8.88;;
68178;SDS011;54998;42.656;23.382;2022-09-09T02:52:38;14.30;;;9.02;;
68178;SDS011;54998;42.656;23.382;2022-09-09T02:58:14;14.75;;;8.73;;
68178;SDS011;54998;42.656;23.382;2022-09-09T03:00:42;11.60;;;8.60;;
68178;SDS011;54998;42.656;23.382;2022-09-09T03:03:10;12.50;;;8.85;;
68178;SDS011;54998;42.656;23.382;2022-09-09T03:05:36;13.05;;;9.63;;
68178;SDS011;54998;42.656;23.382;2022-09-09T03:08:02;14.15;;;9.88;;
68178;SDS011;54998;42.656;23.382;2022-09-09T03:10:28;13.43;;;9.73;;
68178;SDS011;54998;42.656;23.382;2022-09-09T03:12:54;16.40;;;10.40;;
68178;SDS011;54998;42.656;23.382;2022-09-09T03:15:20;17.52;;;11.18;;
68178;SDS011;54998;42.656;23.382;2022-09-09T03:17:46;16.88;;;10.52;;
68178;SDS011;54998;42.656;23.382;2022-09-09T03:20:12;15.35;;;10.80;;
68178;SDS011;54998;42.656;23.382;2022-09-09T03:22:37;14.63;;;11.30;;
68178;SDS011;54998;42.656;23.382;2022-09-09T03:25:03;18.70;;;10.90;;
68178;SDS011;54998;42.656;23.382;2022-09-09T03:27:28;15.88;;;11.13;;
68178;SDS011;54998;42.656;23.382;2022-09-09T03:29:54;16.35;;;11.88;;
68178;SDS011;54998;42.656;23.382;2022-09-09T03:32:20;18.90;;;11.38;;
68178;SDS011;54998;42.656;23.382;2022-09-09T03:34:47;16.60;;;11.02;;
68178;SDS011;54998;42.656;23.382;2022-09-09T03:37:15;17.60;;;11.88;;
68178;SDS011;54998;42.656;23.382;2022-09-09T03:39:42;18.15;;;11.70;;
68178;SDS011;54998;42.656;23.382;2022-09-09T03:42:08;17.88;;;12.05;;
68178;SDS011;54998;42.656;23.382;2022-09-09T03:44:33;20.02;;;12.05;;
68178;SDS011;54998;42.656;23.382;2022-09-09T03:46:58;17.65;;;11.73;;
68178;SDS011;54998;42.656;23.382;2022-09-09T03:49:25;17.48;;;12.25;;
68178;SDS011;54998;42.656;23.382;2022-09-09T03:51:53;18.42;;;12.40;;
68178;SDS011;54998;42.656;23.382;2022-09-09T03:54:23;26.55;;;13.95;;
68178;SDS011;54998;42.656;23.382;2022-09-09T03:56:49;21.90;;;13.25;;
68178;SDS011;54998;42.656;23.382;2022-09-09T03:59:15;18.80;;;12.90;;
68178;SDS011;54998;42.656;23.382;2022-09-09T04:01:40;17.98;;;12.88;;
68178;SDS011;54998;42.656;23.382;2022-09-09T04:04:06;24.17;;;12.95;;
68178;SDS011;54998;42.656;23.382;2022-09-09T04:06:32;19.95;;;13.07;;
68178;SDS011;54998;42.656;23.382;2022-09-09T04:08:58;24.30;;;12.98;;
68178;SDS011;54998;42.656;23.382;2022-09-09T04:11:23;21.23;;;13.02;;
68178;SDS011;54998;42.656;23.382;2022-09-09T04:13:49;19.27;;;12.52;;
68178;SDS011;54998;42.656;23.382;2022-09-09T04:16:15;27.25;;;14.43;;
68178;SDS011;54998;42.656;23.382;2022-09-09T04:18:41;24.58;;;13.95;;
68178;SDS011;54998;42.656;23.382;2022-09-09T04:21:07;21.42;;;13.88;;
68178;SDS011;54998;42.656;23.382;2022-09-09T04:23:35;21.27;;;13.50;;
68178;SDS011;54998;42.656;23.382;2022-09-09T04:26:01;21.35;;;13.40;;
68178;SDS011;54998;42.656;23.382;2022-09-09T04:28:28;18.67;;;12.82;;
68178;SDS011;54998;42.656;23.382;2022-09-09T04:30:55;20.58;;;13.15;;
68178;SDS011;54998;42.656;23.382;2022-09-09T04:33:24;20.27;;;11.63;;
68178;SDS011;54998;42.656;23.382;2022-09-09T04:35:53;18.30;;;11.50;;
68178;SDS011;54998;42.656;23.382;2022-09-09T04:38:19;17.00;;;11.18;;
68178;SDS011;54998;42.656;23.382;2022-09-09T04:40:47;15.02;;;10.93;;
68178;SDS011;54998;42.656;23.382;2022-09-09T04:43:14;15.43;;;10.98;;
68178;SDS011;54998;42.656;23.382;2022-09-09T04:45:40;17.38;;;10.98;;
68178;SDS011;54998;42.656;23.382;2022-09-09T04:48:06;15.25;;;10.57;;
68178;SDS011;54998;42.656;23.382;2022-09-09T04:50:32;14.30;;;10.82;;
68178;SDS011;54998;42.656;23.382;2022-09-09T04:52:59;13.52;;;9.25;;
68178;SDS011;54998;42.656;23.382;2022-09-09T04:55:26;15.23;;;9.95;;
68178;SDS011;54998;42.656;23.382;2022-09-09T04:57:51;18.85;;;9.98;;
68178;SDS011;54998;42.656;23.382;2022-09-09T05:00:17;17.05;;;8.52;;
68178;SDS011;54998;42.656;23.382;2022-09-09T05:02:43;14.18;;;8.93;;
68178;SDS011;54998;42.656;23.382;2022-09-09T05:05:09;11.32;;;8.60;;
68178;SDS011;54998;42.656;23.382;2022-09-09T05:07:36;11.73;;;8.02;;
68178;SDS011;54998;42.656;23.382;2022-09-09T05:10:02;11.63;;;8.00;;
68178;SDS011;54998;42.656;23.382;2022-09-09T05:12:29;10.88;;;7.60;;
68178;SDS011;54998;42.656;23.382;2022-09-09T05:14:54;11.50;;;7.28;;
68178;SDS011;54998;42.656;23.382;2022-09-09T05:17:20;11.15;;;7.15;;
68178;SDS011;54998;42.656;23.382;2022-09-09T05:19:46;10.43;;;7.60;;
68178;SDS011;54998;42.656;23.382;2022-09-09T05:22:11;8.57;;;6.95;;
68178;SDS011;54998;42.656;23.382;2022-09-09T05:24:39;11.77;;;7.38;;
68178;SDS011;54998;42.656;23.382;2022-09-09T05:27:05;9.35;;;7.15;;
68178;SDS011;54998;42.656;23.382;2022-09-09T05:29:31;9.38;;;6.68;;
68178;SDS011;54998;42.656;23.382;2022-09-09T05:31:58;13.43;;;7.50;;
68178;SDS011;54998;42.656;23.382;2022-09-09T05:34:24;10.35;;;6.88;;
68178;SDS011;54998;42.656;23.382;2022-09-09T05:36:50;11.60;;;7.00;;
68178;SDS011;54998;42.656;23.382;2022-09-09T05:39:17;10.07;;;6.30;;
68178;SDS011;54998;42.656;23.382;2022-09-09T05:41:42;9.35;;;6.82;;
68178;SDS011;54998;42.656;23.382;2022-09-09T05:44:08;8.20;;;6.10;;
68178;SDS011;54998;42.656;23.382;2022-09-09T05:46:33;8.55;;;6.68;;
68178;SDS011;54998;42.656;23.382;2022-09-09T05:51:26;9.88;;;7.20;;
68178;SDS011;54998;42.656;23.382;2022-09-09T05:53:53;11.60;;;6.63;;
68178;SDS011;54998;42.656;23.382;2022-09-09T05:56:23;8.07;;;6.90;;
68178;SDS011;54998;42.656;23.382;2022-09-09T05:58:51;9.55;;;7.75;;
68178;SDS011;54998;42.656;23.382;2022-09-09T06:01:20;10.30;;;7.45;;
68178;SDS011;54998;42.656;23.382;2022-09-09T06:03:56;12.30;;;8.15;;
68178;SDS011;54998;42.656;23.382;2022-09-09T06:08:52;11.30;;;7.57;;
68178;SDS011;54998;42.656;23.382;2022-09-09T06:13:46;10.13;;;8.18;;
68178;SDS011;54998;42.656;23.382;2022-09-09T06:16:16;11.48;;;7.60;;
68178;SDS011;54998;42.656;23.382;2022-09-09T06:18:43;9.88;;;7.82;;
68178;SDS011;54998;42.656;23.382;2022-09-09T06:21:16;15.50;;;7.68;;
68178;SDS011;54998;42.656;23.382;2022-09-09T06:23:43;10.60;;;7.78;;
68178;SDS011;54998;42.656;23.382;2022-09-09T06:28:35;13.93;;;10.23;;
68178;SDS011;54998;42.656;23.382;2022-09-09T06:31:02;11.95;;;7.50;;
68178;SDS011;54998;42.656;23.382;2022-09-09T06:33:33;14.07;;;8.25;;
68178;SDS011;54998;42.656;23.382;2022-09-09T06:36:00;9.32;;;7.95;;
68178;SDS011;54998;42.656;23.382;2022-09-09T06:38:27;8.68;;;7.70;;
68178;SDS011;54998;42.656;23.382;2022-09-09T06:40:55;10.45;;;7.10;;
68178;SDS011;54998;42.656;23.382;2022-09-09T06:43:23;8.73;;;7.13;;
68178;SDS011;54998;42.656;23.382;2022-09-09T06:46:02;12.32;;;7.85;;
68178;SDS011;54998;42.656;23.382;2022-09-09T06:48:38;8.90;;;7.53;;
68178;SDS011;54998;42.656;23.382;2022-09-09T06:51:16;11.98;;;6.68;;
68178;SDS011;54998;42.656;23.382;2022-09-09T06:53:46;11.10;;;7.50;;
68178;SDS011;54998;42.656;23.382;2022-09-09T06:56:25;11.13;;;7.32;;
68178;SDS011;54998;42.656;23.382;2022-09-09T06:59:02;9.43;;;6.90;;
68178;SDS011;54998;42.656;23.382;2022-09-09T07:01:30;10.73;;;6.78;;
68178;SDS011;54998;42.656;23.382;2022-09-09T07:03:57;8.98;;;6.18;;
68178;SDS011;54998;42.656;23.382;2022-09-09T07:06:34;8.45;;;6.82;;
68178;SDS011;54998;42.656;23.382;2022-09-09T07:09:05;10.43;;;6.43;;
68178;SDS011;54998;42.656;23.382;2022-09-09T07:11:33;9.35;;;6.43;;
68178;SDS011;54998;42.656;23.382;2022-09-09T07:14:03;15.00;;;6.82;;
68178;SDS011;54998;42.656;23.382;2022-09-09T07:16:29;8.45;;;6.50;;
68178;SDS011;54998;42.656;23.382;2022-09-09T07:18:56;8.63;;;7.20;;
68178;SDS011;54998;42.656;23.382;2022-09-09T07:21:23;9.48;;;6.72;;
68178;SDS011;54998;42.656;23.382;2022-09-09T07:23:51;8.30;;;6.40;;
68178;SDS011;54998;42.656;23.382;2022-09-09T07:26:17;11.50;;;6.93;;
68178;SDS011;54998;42.656;23.382;2022-09-09T07:28:44;9.88;;;6.07;;
68178;SDS011;54998;42.656;23.382;2022-09-09T07:33:42;10.38;;;6.18;;
68178;SDS011;54998;42.656;23.382;2022-09-09T07:36:10;9.95;;;5.55;;
68178;SDS011;54998;42.656;23.382;2022-09-09T07:38:46;9.82;;;6.32;;
68178;SDS011;54998;42.656;23.382;2022-09-09T07:41:15;8.23;;;5.70;;
68178;SDS011;54998;42.656;23.382;2022-09-09T07:43:46;10.68;;;6.35;;
68178;SDS011;54998;42.656;23.382;2022-09-09T07:46:13;6.70;;;5.72;;
68178;SDS011;54998;42.656;23.382;2022-09-09T07:48:43;8.52;;;5.85;;
68178;SDS011;54998;42.656;23.382;2022-09-09T07:51:11;7.20;;;5.82;;
68178;SDS011;54998;42.656;23.382;2022-09-09T07:53:42;10.13;;;5.80;;
68178;SDS011;54998;42.656;23.382;2022-09-09T07:56:09;9.13;;;6.07;;
68178;SDS011;54998;42.656;23.382;2022-09-09T07:58:37;7.82;;;5.43;;
68178;SDS011;54998;42.656;23.382;2022-09-09T08:01:11;8.50;;;5.68;;
68178;SDS011;54998;42.656;23.382;2022-09-09T08:03:38;7.93;;;5.38;;
68178;SDS011;54998;42.656;23.382;2022-09-09T08:06:05;8.20;;;5.40;;
68178;SDS011;54998;42.656;23.382;2022-09-09T08:08:33;9.70;;;6.00;;
68178;SDS011;54998;42.656;23.382;2022-09-09T08:11:03;7.93;;;5.65;;
68178;SDS011;54998;42.656;23.382;2022-09-09T08:13:38;8.50;;;5.55;;
68178;SDS011;54998;42.656;23.382;2022-09-09T08:16:05;8.35;;;5.50;;
68178;SDS011;54998;42.656;23.382;2022-09-09T08:18:32;11.50;;;6.03;;
68178;SDS011;54998;42.656;23.382;2022-09-09T08:21:04;12.07;;;6.10;;
68178;SDS011;54998;42.656;23.382;2022-09-09T08:23:31;10.43;;;6.00;;
68178;SDS011;54998;42.656;23.382;2022-09-09T08:26:02;9.95;;;6.22;;
68178;SDS011;54998;42.656;23.382;2022-09-09T08:28:29;9.25;;;6.25;;
68178;SDS011;54998;42.656;23.382;2022-09-09T08:30:56;9.60;;;6.30;;
68178;SDS011;54998;42.656;23.382;2022-09-09T08:33:21;9.02;;;5.68;;
68178;SDS011;54998;42.656;23.382;2022-09-09T08:35:50;10.73;;;6.28;;
68178;SDS011;54998;42.656;23.382;2022-09-09T08:38:16;8.50;;;6.90;;
68178;SDS011;54998;42.656;23.382;2022-09-09T08:40:42;9.98;;;6.20;;
68178;SDS011;54998;42.656;23.382;2022-09-09T08:43:14;9.00;;;6.07;;
68178;SDS011;54998;42.656;23.382;2022-09-09T08:46:00;8.32;;;5.70;;
68178;SDS011;54998;42.656;23.382;2022-09-09T08:48:47;11.27;;;5.85;;
68178;SDS011;54998;42.656;23.382;2022-09-09T08:51:34;7.80;;;6.07;;
68178;SDS011;54998;42.656;23.382;2022-09-09T08:56:27;8.38;;;5.93;;
68178;SDS011;54998;42.656;23.382;2022-09-09T08:58:56;10.32;;;5.60;;
68178;SDS011;54998;42.656;23.382;2022-09-09T09:04:37;8.82;;;5.82;;
68178;SDS011;54998;42.656;23.382;2022-09-09T09:07:31;12.50;;;6.25;;
68178;SDS011;54998;42.656;23.382;2022-09-09T09:12:58;7.55;;;5.75;;
68178;SDS011;54998;42.656;23.382;2022-09-09T09:15:28;11.57;;;5.78;;
68178;SDS011;54998;42.656;23.382;2022-09-09T09:18:01;13.88;;;6.07;;
68178;SDS011;54998;42.656;23.382;2022-09-09T09:20:38;10.68;;;5.72;;
68178;SDS011;54998;42.656;23.382;2022-09-09T09:23:09;9.75;;;5.85;;
68178;SDS011;54998;42.656;23.382;2022-09-09T09:25:44;8.45;;;6.10;;
68178;SDS011;54998;42.656;23.382;2022-09-09T09:28:16;8.30;;;6.20;;
68178;SDS011;54998;42.656;23.382;2022-09-09T09:30:54;10.50;;;6.07;;
68178;SDS011;54998;42.656;23.382;2022-09-09T09:33:27;9.40;;;6.05;;
68178;SDS011;54998;42.656;23.382;2022-09-09T09:35:55;11.07;;;6.53;;
68178;SDS011;54998;42.656;23.382;2022-09-09T09:38:21;10.60;;;6.85;;
68178;SDS011;54998;42.656;23.382;2022-09-09T09:40:49;6.47;;;5.72;;
68178;SDS011;54998;42.656;23.382;2022-09-09T09:46:05;8.68;;;6.32;;
68178;SDS011;54998;42.656;23.382;2022-09-09T09:48:43;7.57;;;6.00;;
68178;SDS011;54998;42.656;23.382;2022-09-09T09:51:09;10.65;;;6.47;;
68178;SDS011;54998;42.656;23.382;2022-09-09T09:53:39;8.52;;;6.07;;
68178;SDS011;54998;42.656;23.382;2022-09-09T09:56:05;8.57;;;5.78;;
68178;SDS011;54998;42.656;23.382;2022-09-09T09:58:33;11.80;;;6.70;;
68178;SDS011;54998;42.656;23.382;2022-09-09T10:01:30;10.48;;;6.72;;
68178;SDS011;54998;42.656;23.382;2022-09-09T10:04:01;11.55;;;6.72;;
68178;SDS011;54998;42.656;23.382;2022-09-09T10:06:51;8.55;;;5.78;;
68178;SDS011;54998;42.656;23.382;2022-09-09T10:22:52;9.38;;;6.05;;
68178;SDS011;54998;42.656;23.382;2022-09-09T10:31:21;10.05;;;6.22;;
68178;SDS011;54998;42.656;23.382;2022-09-09T10:36:56;10.63;;;6.40;;
68178;SDS011;54998;42.656;23.382;2022-09-09T10:39:37;7.75;;;6.05;;
68178;SDS011;54998;42.656;23.382;2022-09-09T10:42:13;10.68;;;6.25;;
68178;SDS011;54998;42.656;23.382;2022-09-09T10:49:37;11.13;;;6.55;;
68178;SDS011;54998;42.656;23.382;2022-09-09T10:55:17;8.75;;;6.30;;
68178;SDS011;54998;42.656;23.382;2022-09-09T11:02:39;12.27;;;6.32;;
68178;SDS011;54998;42.656;23.382;2022-09-09T11:05:17;9.68;;;6.78;;
68178;SDS011;54998;42.656;23.382;2022-09-09T11:13:06;9.77;;;6.90;;
68178;SDS011;54998;42.656;23.382;2022-09-09T11:15:49;13.65;;;7.10;;
68178;SDS011;54998;42.656;23.382;2022-09-09T11:18:20;10.07;;;6.40;;
68178;SDS011;54998;42.656;23.382;2022-09-09T11:20:52;9.32;;;6.50;;
68178;SDS011;54998;42.656;23.382;2022-09-09T11:23:32;8.73;;;7.07;;
68178;SDS011;54998;42.656;23.382;2022-09-09T11:26:06;9.13;;;7.28;;
68178;SDS011;54998;42.656;23.382;2022-09-09T11:44:37;12.52;;;8.13;;
68178;SDS011;54998;42.656;23.382;2022-09-09T11:47:03;15.30;;;8.05;;
68178;SDS011;54998;42.656;23.382;2022-09-09T11:49:44;14.90;;;8.52;;
68178;SDS011;54998;42.656;23.382;2022-09-09T11:52:36;11.60;;;7.70;;
68178;SDS011;54998;42.656;23.382;2022-09-09T11:55:08;14.98;;;7.85;;
68178;SDS011;54998;42.656;23.382;2022-09-09T11:57:37;11.40;;;8.48;;
68178;SDS011;54998;42.656;23.382;2022-09-09T12:00:03;19.05;;;9.52;;
68178;SDS011;54998;42.656;23.382;2022-09-09T12:02:30;12.07;;;8.02;;
68178;SDS011;54998;42.656;23.382;2022-09-09T12:05:09;14.50;;;7.65;;
68178;SDS011;54998;42.656;23.382;2022-09-09T12:07:40;11.75;;;7.63;;
68178;SDS011;54998;42.656;23.382;2022-09-09T12:12:55;12.32;;;8.18;;
68178;SDS011;54998;42.656;23.382;2022-09-09T12:15:32;12.63;;;8.48;;
68178;SDS011;54998;42.656;23.382;2022-09-09T12:17:58;10.70;;;8.10;;
68178;SDS011;54998;42.656;23.382;2022-09-09T12:23:08;17.35;;;8.60;;
68178;SDS011;54998;42.656;23.382;2022-09-09T12:31:24;14.15;;;8.85;;
68178;SDS011;54998;42.656;23.382;2022-09-09T12:34:08;14.52;;;8.65;;
68178;SDS011;54998;42.656;23.382;2022-09-09T12:37:02;10.27;;;8.27;;
68178;SDS011;54998;42.656;23.382;2022-09-09T12:39:38;10.93;;;8.40;;
68178;SDS011;54998;42.656;23.382;2022-09-09T12:42:17;15.15;;;8.48;;
68178;SDS011;54998;42.656;23.382;2022-09-09T12:44:54;13.45;;;8.15;;
68178;SDS011;54998;42.656;23.382;2022-09-09T12:47:24;17.45;;;10.57;;
68178;SDS011;54998;42.656;23.382;2022-09-09T12:52:44;13.63;;;8.32;;
68178;SDS011;54998;42.656;23.382;2022-09-09T12:55:15;13.90;;;8.20;;
68178;SDS011;54998;42.656;23.382;2022-09-09T12:57:43;12.80;;;7.97;;
68178;SDS011;54998;42.656;23.382;2022-09-09T13:02:50;17.90;;;9.00;;
68178;SDS011;54998;42.656;23.382;2022-09-09T13:05:18;13.80;;;8.82;;
68178;SDS011;54998;42.656;23.382;2022-09-09T13:07:46;13.30;;;8.48;;
68178;SDS011;54998;42.656;23.382;2022-09-09T13:12:38;11.30;;;9.10;;
68178;SDS011;54998;42.656;23.382;2022-09-09T13:15:10;14.18;;;7.72;;
68178;SDS011;54998;42.656;23.382;2022-09-09T13:17:48;10.57;;;7.78;;
68178;SDS011;54998;42.656;23.382;2022-09-09T13:20:16;13.43;;;8.43;;
68178;SDS011;54998;42.656;23.382;2022-09-09T13:22:43;12.50;;;9.07;;
68178;SDS011;54998;42.656;23.382;2022-09-09T13:27:36;11.07;;;8.13;;
68178;SDS011;54998;42.656;23.382;2022-09-09T13:30:21;17.40;;;9.20;;
68178;SDS011;54998;42.656;23.382;2022-09-09T13:35:34;17.10;;;8.65;;
68178;SDS011;54998;42.656;23.382;2022-09-09T13:38:12;12.75;;;8.45;;
68178;SDS011;54998;42.656;23.382;2022-09-09T13:40:39;13.05;;;8.32;;
68178;SDS011;54998;42.656;23.382;2022-09-09T13:43:05;18.45;;;9.00;;
68178;SDS011;54998;42.656;23.382;2022-09-09T13:45:40;15.85;;;8.77;;
68178;SDS011;54998;42.656;23.382;2022-09-09T13:48:09;12.98;;;8.63;;
68178;SDS011;54998;42.656;23.382;2022-09-09T13:50:35;16.05;;;8.80;;
68178;SDS011;54998;42.656;23.382;2022-09-09T13:53:01;13.50;;;9.00;;
68178;SDS011;54998;42.656;23.382;2022-09-09T13:55:27;12.40;;;8.45;;
68178;SDS011;54998;42.656;23.382;2022-09-09T13:57:54;15.55;;;8.18;;
68178;SDS011;54998;42.656;23.382;2022-09-09T14:00:21;14.90;;;9.52;;
68178;SDS011;54998;42.656;23.382;2022-09-09T14:02:49;16.15;;;9.52;;
68178;SDS011;54998;42.656;23.382;2022-09-09T14:07:41;12.60;;;8.40;;
68178;SDS011;54998;42.656;23.382;2022-09-09T14:10:08;16.58;;;8.30;;
68178;SDS011;54998;42.656;23.382;2022-09-09T14:12:34;12.00;;;8.27;;
68178;SDS011;54998;42.656;23.382;2022-09-09T14:15:01;12.77;;;8.60;;
68178;SDS011;54998;42.656;23.382;2022-09-09T14:17:27;13.55;;;8.65;;
68178;SDS011;54998;42.656;23.382;2022-09-09T14:19:56;12.65;;;8.35;;
68178;SDS011;54998;42.656;23.382;2022-09-09T14:22:22;11.95;;;8.32;;
68178;SDS011;54998;42.656;23.382;2022-09-09T14:24:48;13.85;;;8.57;;
68178;SDS011;54998;42.656;23.382;2022-09-09T14:27:14;14.32;;;8.77;;
68178;SDS011;54998;42.656;23.382;2022-09-09T14:29:40;11.20;;;7.85;;
68178;SDS011;54998;42.656;23.382;2022-09-09T14:32:05;11.32;;;7.35;;
68178;SDS011;54998;42.656;23.382;2022-09-09T14:34:31;9.43;;;7.50;;
68178;SDS011;54998;42.656;23.382;2022-09-09T14:37:00;12.55;;;8.07;;
68178;SDS011;54998;42.656;23.382;2022-09-09T14:39:25;12.27;;;9.13;;
68178;SDS011;54998;42.656;23.382;2022-09-09T14:41:51;16.92;;;8.93;;
68178;SDS011;54998;42.656;23.382;2022-09-09T14:44:16;11.65;;;7.47;;
68178;SDS011;54998;42.656;23.382;2022-09-09T14:46:42;14.70;;;7.63;;
68178;SDS011;54998;42.656;23.382;2022-09-09T14:49:08;12.80;;;8.07;;
68178;SDS011;54998;42.656;23.382;2022-09-09T14:51:35;13.02;;;8.10;;
68178;SDS011;54998;42.656;23.382;2022-09-09T14:54:01;15.38;;;7.65;;
68178;SDS011;54998;42.656;23.382;2022-09-09T14:56:28;11.60;;;8.25;;
68178;SDS011;54998;42.656;23.382;2022-09-09T14:58:55;12.98;;;8.30;;
68178;SDS011;54998;42.656;23.382;2022-09-09T15:01:22;17.88;;;8.15;;
68178;SDS011;54998;42.656;23.382;2022-09-09T15:03:50;18.92;;;8.93;;
68178;SDS011;54998;42.656;23.382;2022-09-09T15:06:17;12.73;;;8.48;;
68178;SDS011;54998;42.656;23.382;2022-09-09T15:08:44;15.15;;;9.52;;
68178;SDS011;54998;42.656;23.382;2022-09-09T15:11:11;13.15;;;8.68;;
68178;SDS011;54998;42.656;23.382;2022-09-09T15:13:38;14.20;;;9.05;;
68178;SDS011;54998;42.656;23.382;2022-09-09T15:16:11;12.32;;;8.20;;
68178;SDS011;54998;42.656;23.382;2022-09-09T15:21:08;17.13;;;8.13;;
68178;SDS011;54998;42.656;23.382;2022-09-09T15:23:35;13.30;;;9.15;;
68178;SDS011;54998;42.656;23.382;2022-09-09T15:28:27;16.77;;;9.48;;
68178;SDS011;54998;42.656;23.382;2022-09-09T15:30:53;16.77;;;9.50;;
68178;SDS011;54998;42.656;23.382;2022-09-09T15:33:20;15.95;;;10.25;;
68178;SDS011;54998;42.656;23.382;2022-09-09T15:35:46;15.40;;;9.30;;
68178;SDS011;54998;42.656;23.382;2022-09-09T15:38:12;13.02;;;9.07;;
68178;SDS011;54998;42.656;23.382;2022-09-09T15:40:41;15.45;;;9.02;;
68178;SDS011;54998;42.656;23.382;2022-09-09T15:43:07;14.77;;;8.75;;
68178;SDS011;54998;42.656;23.382;2022-09-09T15:45:34;14.02;;;9.07;;
68178;SDS011;54998;42.656;23.382;2022-09-09T15:48:00;12.85;;;8.50;;
68178;SDS011;54998;42.656;23.382;2022-09-09T15:50:26;13.90;;;8.10;;
68178;SDS011;54998;42.656;23.382;2022-09-09T15:52:52;13.45;;;7.70;;
68178;SDS011;54998;42.656;23.382;2022-09-09T15:55:18;17.77;;;8.73;;
68178;SDS011;54998;42.656;23.382;2022-09-09T15:57:45;15.73;;;7.82;;
68178;SDS011;54998;42.656;23.382;2022-09-09T16:00:11;15.68;;;8.43;;
68178;SDS011;54998;42.656;23.382;2022-09-09T16:02:38;12.32;;;8.38;;
68178;SDS011;54998;42.656;23.382;2022-09-09T16:05:04;14.63;;;8.20;;
68178;SDS011;54998;42.656;23.382;2022-09-09T16:07:30;14.20;;;8.30;;
68178;SDS011;54998;42.656;23.382;2022-09-09T16:09:55;15.95;;;9.13;;
68178;SDS011;54998;42.656;23.382;2022-09-09T16:12:21;16.52;;;8.65;;
68178;SDS011;54998;42.656;23.382;2022-09-09T16:14:46;13.38;;;8.05;;
68178;SDS011;54998;42.656;23.382;2022-09-09T16:17:12;13.02;;;8.52;;
68178;SDS011;54998;42.656;23.382;2022-09-09T16:19:37;14.95;;;7.30;;
68178;SDS011;54998;42.656;23.382;2022-09-09T16:22:03;14.15;;;7.78;;
68178;SDS011;54998;42.656;23.382;2022-09-09T16:24:29;12.80;;;7.63;;
68178;SDS011;54998;42.656;23.382;2022-09-09T16:26:54;13.38;;;7.38;;
68178;SDS011;54998;42.656;23.382;2022-09-09T16:29:20;48.35;;;17.48;;
68178;SDS011;54998;42.656;23.382;2022-09-09T16:31:47;14.85;;;9.55;;
68178;SDS011;54998;42.656;23.382;2022-09-09T16:34:14;21.00;;;10.93;;
68178;SDS011;54998;42.656;23.382;2022-09-09T16:36:41;14.60;;;8.38;;
68178;SDS011;54998;42.656;23.382;2022-09-09T16:39:09;17.20;;;8.93;;
68178;SDS011;54998;42.656;23.382;2022-09-09T16:41:36;16.67;;;10.10;;
68178;SDS011;54998;42.656;23.382;2022-09-09T16:44:03;17.08;;;8.70;;
68178;SDS011;54998;42.656;23.382;2022-09-09T16:46:32;18.80;;;8.75;;
68178;SDS011;54998;42.656;23.382;2022-09-09T16:49:00;13.73;;;7.60;;
68178;SDS011;54998;42.656;23.382;2022-09-09T16:51:30;14.75;;;7.43;;
68178;SDS011;54998;42.656;23.382;2022-09-09T16:53:57;16.38;;;7.80;;
68178;SDS011;54998;42.656;23.382;2022-09-09T16:56:26;14.10;;;6.80;;
68178;SDS011;54998;42.656;23.382;2022-09-09T16:58:54;13.00;;;7.18;;
68178;SDS011;54998;42.656;23.382;2022-09-09T17:01:24;11.13;;;7.70;;
68178;SDS011;54998;42.656;23.382;2022-09-09T17:03:57;11.40;;;6.63;;
68178;SDS011;54998;42.656;23.382;2022-09-09T17:06:26;11.77;;;7.25;;
68178;SDS011;54998;42.656;23.382;2022-09-09T17:08:59;13.68;;;7.88;;
68178;SDS011;54998;42.656;23.382;2022-09-09T17:11:26;12.82;;;7.20;;
68178;SDS011;54998;42.656;23.382;2022-09-09T17:13:54;11.55;;;7.28;;
68178;SDS011;54998;42.656;23.382;2022-09-09T17:16:21;14.57;;;7.05;;
68178;SDS011;54998;42.656;23.382;2022-09-09T17:18:48;15.55;;;7.43;;
68178;SDS011;54998;42.656;23.382;2022-09-09T17:21:17;16.52;;;7.78;;
68178;SDS011;54998;42.656;23.382;2022-09-09T17:23:44;21.25;;;8.25;;